Time;durP1;ratioP1;P1;durP2;ratioP2;P2;SDS_P1;SDS_P2;PMS_P1;PMS_P2;Temp;Humidity;BMP_temperature;BMP_pressure;BME280_temperature;BME280_humidity;BME280_pressure;Samples;Min_cycle;Max_cycle;Signal;HPM_P1;HPM_P2
2021/09/04 00:00:21;;;;;;;8.83;8.00;;;16.70;99.90;;;;;;5034322;28;20678;-54
2021/09/04 00:02:48;;;;;;;9.97;8.13;;;16.70;99.90;;;;;;5034094;28;20197;-58
2021/09/04 00:05:14;;;;;;;8.40;7.50;;;16.70;99.90;;;;;;5034528;28;20459;-57
2021/09/04 00:07:39;;;;;;;9.73;8.80;;;16.70;99.90;;;;;;5034207;28;20248;-55
2021/09/04 00:10:06;;;;;;;9.37;8.30;;;16.70;99.90;;;;;;5034696;28;20590;-58
2021/09/04 00:12:32;;;;;;;8.40;7.47;;;16.70;99.90;;;;;;5034589;28;20582;-58
2021/09/04 00:14:58;;;;;;;10.03;9.03;;;16.60;99.90;;;;;;5034357;28;20413;-57
2021/09/04 00:17:24;;;;;;;8.97;8.17;;;16.50;99.90;;;;;;5034490;28;20432;-58
2021/09/04 00:19:50;;;;;;;8.33;7.07;;;16.50;99.90;;;;;;5034081;28;20198;-58
2021/09/04 00:22:15;;;;;;;8.97;8.13;;;16.40;99.90;;;;;;5034353;28;20403;-58
2021/09/04 00:24:41;;;;;;;8.07;7.13;;;16.50;99.90;;;;;;5034508;28;20166;-58
2021/09/04 00:27:07;;;;;;;8.33;7.50;;;16.50;99.90;;;;;;5034105;28;20326;-56
2021/09/04 00:29:33;;;;;;;7.47;6.77;;;16.40;99.90;;;;;;5034430;28;20185;-55
2021/09/04 00:31:59;;;;;;;8.67;7.77;;;16.50;99.90;;;;;;5033954;28;20540;-58
2021/09/04 00:34:25;;;;;;;8.40;7.60;;;16.50;99.90;;;;;;5033926;28;20408;-58
2021/09/04 00:36:50;;;;;;;8.60;7.80;;;16.50;99.90;;;;;;5034193;28;20668;-58
2021/09/04 00:39:16;;;;;;;9.07;8.20;;;16.50;99.90;;;;;;5033940;28;20169;-58
2021/09/04 00:41:42;;;;;;;9.50;7.97;;;16.40;99.90;;;;;;5034030;28;20170;-58
2021/09/04 00:44:17;;;;;;;7.63;6.93;;;16.30;99.90;;;;;;5034211;28;20250;-58
2021/09/04 00:46:43;;;;;;;8.63;7.77;;;16.30;99.90;;;;;;5033842;28;20461;-58
2021/09/04 00:49:09;;;;;;;9.90;7.93;;;16.20;99.90;;;;;;5033846;28;20404;-58
2021/09/04 00:51:34;;;;;;;8.83;8.03;;;16.20;99.90;;;;;;5034012;28;20754;-56
2021/09/04 00:54:01;;;;;;;8.80;7.97;;;16.10;99.90;;;;;;5033765;28;20172;-57
2021/09/04 00:56:26;;;;;;;10.13;8.90;;;16.10;99.90;;;;;;5033946;28;20596;-58
2021/09/04 00:58:52;;;;;;;9.77;8.70;;;16.20;99.90;;;;;;5022588;28;20393;-58
2021/09/04 01:01:18;;;;;;;9.53;8.37;;;16.20;99.90;;;;;;5012858;28;20247;-58
2021/09/04 01:03:44;;;;;;;8.93;8.03;;;16.10;99.90;;;;;;5013832;28;20224;-58
2021/09/04 01:06:15;;;;;;;9.43;7.60;;;16.10;99.90;;;;;;5013890;28;20454;-58
2021/09/04 01:08:41;;;;;;;8.37;7.47;;;16.00;99.90;;;;;;5014004;28;20752;-57
2021/09/04 01:11:09;;;;;;;9.37;8.13;;;15.90;99.90;;;;;;5013944;28;20505;-56
2021/09/04 01:13:38;;;;;;;8.60;7.80;;;15.70;99.90;;;;;;5013724;28;20898;-58
2021/09/04 01:16:04;;;;;;;8.70;7.80;;;15.70;99.90;;;;;;5028870;28;20584;-57
2021/09/04 01:18:30;;;;;;;8.13;7.20;;;15.80;99.90;;;;;;5033056;28;20490;-57
2021/09/04 01:20:56;;;;;;;8.23;7.53;;;15.90;99.90;;;;;;5033537;28;20452;-57
2021/09/04 01:23:21;;;;;;;10.17;9.17;;;15.90;99.90;;;;;;5033541;28;20413;-57
2021/09/04 01:25:54;;;;;;;9.80;8.23;;;15.80;99.90;;;;;;5033221;28;20202;-56
2021/09/04 01:28:21;;;;;;;8.83;8.00;;;15.80;99.90;;;;;;5033690;28;20520;-58
2021/09/04 01:30:48;;;;;;;8.63;7.50;;;15.80;99.90;;;;;;5033122;28;20425;-57
2021/09/04 01:33:14;;;;;;;10.33;9.33;;;15.70;99.90;;;;;;5033158;28;20416;-58
2021/09/04 01:35:39;;;;;;;8.83;7.93;;;15.60;99.90;;;;;;5033048;28;20434;-58
2021/09/04 01:38:05;;;;;;;9.57;8.57;;;15.60;99.90;;;;;;5033423;28;20782;-57
2021/09/04 01:40:31;;;;;;;9.67;8.70;;;15.60;99.90;;;;;;5033231;28;20284;-57
2021/09/04 01:42:56;;;;;;;8.43;7.63;;;15.60;99.90;;;;;;5033630;28;20186;-57
2021/09/04 01:45:22;;;;;;;9.07;8.17;;;15.60;99.90;;;;;;5032815;28;20177;-57
2021/09/04 01:47:48;;;;;;;8.17;7.47;;;15.60;99.90;;;;;;5033305;28;20166;-58
2021/09/04 01:50:15;;;;;;;8.93;8.00;;;15.50;99.90;;;;;;5032978;28;20266;-57
2021/09/04 01:52:42;;;;;;;8.57;7.77;;;15.60;99.90;;;;;;5025046;28;20418;-56
2021/09/04 01:55:10;;;;;;;9.40;8.50;;;15.60;99.90;;;;;;5032203;28;20420;-58
2021/09/04 01:57:36;;;;;;;9.70;8.73;;;15.50;99.90;;;;;;5027593;28;20469;-57
2021/09/04 02:00:07;;;;;;;10.80;9.00;;;15.50;99.90;;;;;;5013479;28;20491;-57
2021/09/04 02:02:32;;;;;;;7.90;7.20;;;15.50;99.90;;;;;;5013136;28;20414;-57
2021/09/04 02:04:58;;;;;;;8.27;7.47;;;15.60;99.90;;;;;;5013313;28;20922;-56
2021/09/04 02:07:24;;;;;;;7.97;7.27;;;15.50;99.90;;;;;;5036285;23;20229;-60
2021/09/04 02:09:49;;;;;;;8.33;7.50;;;15.50;99.90;;;;;;5012255;28;20190;-60
2021/09/04 02:12:15;;;;;;;7.57;6.87;;;15.50;99.90;;;;;;5015060;28;20767;-60
2021/09/04 02:14:41;;;;;;;9.83;8.83;;;15.50;99.90;;;;;;5016036;28;20252;-61
2021/09/04 02:17:06;;;;;;;10.43;8.70;;;15.50;99.90;;;;;;5016103;28;20198;-60
2021/09/04 02:19:32;;;;;;;8.70;7.90;;;15.40;99.90;;;;;;5016318;28;20201;-58
2021/09/04 02:21:57;;;;;;;9.50;8.43;;;15.40;99.90;;;;;;5016785;28;20171;-60
2021/09/04 02:24:23;;;;;;;9.80;8.80;;;15.40;99.90;;;;;;5016712;28;20252;-61
2021/09/04 02:26:49;;;;;;;9.63;8.73;;;15.40;99.90;;;;;;5016441;28;20546;-60
2021/09/04 02:29:14;;;;;;;9.43;8.53;;;15.40;99.90;;;;;;5016362;28;20216;-60
2021/09/04 02:31:40;;;;;;;10.73;8.57;;;15.40;99.90;;;;;;5016173;28;20165;-60
2021/09/04 02:34:05;;;;;;;10.17;8.50;;;15.40;99.90;;;;;;5016345;28;20165;-60
2021/09/04 02:36:31;;;;;;;10.10;8.30;;;15.40;99.90;;;;;;5016288;28;20196;-60
2021/09/04 02:38:56;;;;;;;8.80;7.90;;;15.50;99.90;;;;;;5016173;28;20195;-58
2021/09/04 02:41:22;;;;;;;8.83;7.87;;;15.50;99.90;;;;;;5015941;28;20201;-59
2021/09/04 02:43:48;;;;;;;8.73;7.50;;;15.50;99.90;;;;;;5016143;28;20293;-60
2021/09/04 02:46:13;;;;;;;9.13;8.23;;;15.50;99.90;;;;;;5015928;28;20640;-60
2021/09/04 02:48:39;;;;;;;11.20;7.90;;;15.50;99.90;;;;;;5015929;28;20187;-60
2021/09/04 02:51:04;;;;;;;9.10;8.20;;;15.40;99.90;;;;;;5013421;28;20167;-61
2021/09/04 02:53:30;;;;;;;8.87;7.97;;;15.40;99.90;;;;;;4996402;28;20645;-61
2021/09/04 02:55:56;;;;;;;9.00;8.17;;;15.30;99.90;;;;;;4996407;28;20353;-59
2021/09/04 02:58:21;;;;;;;8.40;7.60;;;15.30;99.90;;;;;;4996948;28;20186;-60
2021/09/04 03:00:47;;;;;;;9.20;8.30;;;15.30;99.90;;;;;;4995904;28;20196;-60
2021/09/04 03:03:12;;;;;;;9.07;8.23;;;15.20;99.90;;;;;;4996227;28;20246;-60
2021/09/04 03:05:39;;;;;;;8.63;7.73;;;15.30;99.90;;;;;;4996184;28;20172;-60
2021/09/04 03:08:04;;;;;;;8.50;7.80;;;15.20;99.90;;;;;;4996006;28;20218;-60
2021/09/04 03:10:30;;;;;;;8.87;7.57;;;15.30;99.90;;;;;;4996199;28;20907;-60
2021/09/04 03:12:56;;;;;;;8.57;7.77;;;15.30;99.90;;;;;;4996608;28;21006;-60
2021/09/04 03:15:22;;;;;;;8.67;7.77;;;15.30;99.90;;;;;;5000949;28;20183;-61
2021/09/04 03:17:48;;;;;;;8.67;7.80;;;15.30;99.90;;;;;;5015961;28;20428;-59
2021/09/04 03:20:14;;;;;;;8.40;7.50;;;15.20;99.90;;;;;;5015263;28;20205;-60
2021/09/04 03:22:40;;;;;;;10.93;8.50;;;15.30;99.90;;;;;;5014422;28;20178;-60
2021/09/04 03:25:06;;;;;;;8.97;8.10;;;15.20;99.90;;;;;;5015609;28;20414;-60
2021/09/04 03:27:32;;;;;;;8.53;7.63;;;15.10;99.90;;;;;;5015219;28;20312;-61
2021/09/04 03:29:59;;;;;;;9.70;8.70;;;15.10;99.90;;;;;;5015001;28;20487;-61
2021/09/04 03:32:24;;;;;;;10.37;8.57;;;15.10;99.90;;;;;;5015541;28;20178;-61
2021/09/04 03:34:52;;;;;;;8.80;8.07;;;15.10;99.90;;;;;;5015102;28;20410;-61
2021/09/04 03:37:18;;;;;;;11.23;7.93;;;15.10;99.90;;;;;;5015362;28;20195;-60
2021/09/04 03:39:44;;;;;;;9.23;8.33;;;15.20;99.90;;;;;;5015292;28;20597;-60
2021/09/04 03:42:09;;;;;;;10.57;8.73;;;15.20;99.90;;;;;;5015320;28;20454;-58
2021/09/04 03:44:35;;;;;;;9.83;8.83;;;15.20;99.90;;;;;;5014984;28;20167;-60
2021/09/04 03:47:01;;;;;;;9.50;8.60;;;15.10;99.90;;;;;;5014560;28;20250;-60
2021/09/04 03:49:27;;;;;;;9.00;8.10;;;15.10;99.90;;;;;;5014744;28;20701;-58
2021/09/04 03:51:52;;;;;;;9.37;8.50;;;15.10;99.90;;;;;;5015093;28;20582;-60
2021/09/04 03:54:18;;;;;;;9.30;8.37;;;15.00;99.90;;;;;;5014823;28;20171;-60
2021/09/04 03:56:43;;;;;;;11.70;8.90;;;15.00;99.90;;;;;;5014982;28;20199;-60
2021/09/04 03:59:09;;;;;;;8.97;8.00;;;15.00;99.90;;;;;;5015027;28;20588;-59
2021/09/04 04:01:34;;;;;;;10.83;9.83;;;15.00;99.90;;;;;;5014412;28;20681;-60
2021/09/04 04:04:00;;;;;;;9.20;8.30;;;15.00;99.90;;;;;;5014527;28;20200;-60
2021/09/04 04:06:25;;;;;;;9.17;8.27;;;15.00;99.90;;;;;;5015166;28;20616;-60
2021/09/04 04:08:51;;;;;;;9.97;8.97;;;15.00;99.90;;;;;;5014361;28;20612;-60
2021/09/04 04:11:17;;;;;;;9.20;8.30;;;15.00;99.90;;;;;;5015069;28;20179;-60
2021/09/04 04:13:42;;;;;;;9.10;8.30;;;15.00;99.90;;;;;;5014517;28;20176;-60
2021/09/04 04:16:08;;;;;;;10.70;9.70;;;15.00;99.90;;;;;;5014254;28;20171;-61
2021/09/04 04:18:34;;;;;;;10.40;9.40;;;15.00;99.90;;;;;;5014626;28;20675;-61
2021/09/04 04:21:01;;;;;;;10.83;9.73;;;15.00;99.90;;;;;;5014328;28;20452;-61
2021/09/04 04:23:27;;;;;;;11.87;8.63;;;15.00;99.90;;;;;;5014422;28;20496;-61
2021/09/04 04:25:53;;;;;;;9.60;7.53;;;15.00;99.90;;;;;;5014331;28;20498;-61
2021/09/04 04:28:18;;;;;;;10.77;8.63;;;14.90;99.90;;;;;;5014461;28;20187;-60
2021/09/04 04:30:44;;;;;;;8.40;7.60;;;14.90;99.90;;;;;;5013945;28;20250;-61
2021/09/04 04:33:10;;;;;;;11.60;7.93;;;14.80;99.90;;;;;;5014566;28;20686;-60
2021/09/04 04:35:36;;;;;;;8.70;7.90;;;14.80;99.90;;;;;;5013462;28;20639;-62
2021/09/04 04:38:02;;;;;;;10.87;9.77;;;14.80;99.90;;;;;;5014029;28;20195;-60
2021/09/04 04:40:28;;;;;;;9.33;8.43;;;14.80;99.90;;;;;;5014219;28;20201;-60
2021/09/04 04:42:53;;;;;;;9.07;8.17;;;14.80;99.90;;;;;;5014183;28;20163;-59
2021/09/04 04:45:19;;;;;;;9.97;8.57;;;14.80;99.90;;;;;;5013579;28;20243;-60
2021/09/04 04:47:44;;;;;;;9.30;8.40;;;14.80;99.90;;;;;;5013840;28;20191;-60
2021/09/04 04:50:11;;;;;;;9.03;8.10;;;14.80;99.90;;;;;;5013880;28;20581;-61
2021/09/04 04:52:37;;;;;;;8.63;7.83;;;14.80;99.90;;;;;;5013711;28;20182;-61
2021/09/04 04:55:03;;;;;;;9.00;8.20;;;14.80;99.90;;;;;;5014540;28;20762;-60
2021/09/04 04:57:28;;;;;;;9.63;8.60;;;14.80;99.90;;;;;;5013630;28;20437;-61
2021/09/04 04:59:54;;;;;;;8.93;7.97;;;14.80;99.90;;;;;;5010821;28;20817;-60
2021/09/04 05:02:19;;;;;;;9.73;8.73;;;14.80;99.90;;;;;;5003049;28;20187;-59
2021/09/04 05:04:45;;;;;;;8.67;7.97;;;14.80;99.90;;;;;;4992708;28;20224;-58
2021/09/04 05:07:10;;;;;;;8.80;7.90;;;14.80;99.90;;;;;;4993549;28;20211;-59
2021/09/04 05:09:36;;;;;;;9.53;8.63;;;14.70;99.90;;;;;;4994297;28;20520;-59
2021/09/04 05:12:02;;;;;;;9.27;8.37;;;14.80;99.90;;;;;;4994042;28;20171;-60
2021/09/04 05:14:27;;;;;;;9.80;8.80;;;14.80;99.90;;;;;;4994218;28;20175;-60
2021/09/04 05:16:53;;;;;;;9.77;8.70;;;14.70;99.90;;;;;;5009981;28;20751;-60
2021/09/04 05:19:19;;;;;;;8.53;7.17;;;14.60;99.90;;;;;;5013348;28;20642;-60
2021/09/04 05:21:44;;;;;;;9.33;8.40;;;14.70;99.90;;;;;;5013392;28;20255;-61
2021/09/04 05:24:10;;;;;;;9.27;8.30;;;14.70;99.90;;;;;;5013654;28;20162;-62
2021/09/04 05:26:35;;;;;;;11.63;9.47;;;14.80;99.90;;;;;;5013277;28;20166;-62
2021/09/04 05:29:01;;;;;;;10.30;9.30;;;14.80;99.90;;;;;;5013565;28;20166;-62
2021/09/04 05:31:26;;;;;;;7.80;7.10;;;14.80;99.90;;;;;;5013175;28;20174;-60
2021/09/04 05:33:52;;;;;;;10.03;9.00;;;14.80;99.90;;;;;;5013847;28;20166;-60
2021/09/04 05:36:18;;;;;;;9.00;8.10;;;14.90;99.90;;;;;;5013406;28;20181;-60
2021/09/04 05:38:43;;;;;;;8.77;7.97;;;14.90;99.90;;;;;;5013213;28;20192;-62
2021/09/04 05:41:09;;;;;;;9.37;8.33;;;15.00;99.90;;;;;;5013194;28;20203;-60
2021/09/04 05:43:35;;;;;;;10.50;8.30;;;15.00;99.90;;;;;;5013118;28;20166;-59
2021/09/04 05:46:01;;;;;;;9.50;8.60;;;15.00;99.90;;;;;;5013594;28;20178;-59
2021/09/04 05:48:26;;;;;;;10.00;8.20;;;15.10;99.90;;;;;;5017350;28;20248;-61
2021/09/04 05:50:52;;;;;;;10.70;9.60;;;15.10;99.90;;;;;;5016921;28;20405;-60
2021/09/04 05:53:17;;;;;;;15.67;9.13;;;15.00;99.90;;;;;;5017113;28;20255;-61
2021/09/04 05:55:43;;;;;;;11.23;10.10;;;15.00;99.90;;;;;;5017381;28;20576;-60
2021/09/04 05:58:09;;;;;;;10.03;9.03;;;15.00;99.90;;;;;;5016946;28;20192;-60
2021/09/04 06:00:34;;;;;;;11.57;10.10;;;15.10;99.90;;;;;;5016729;28;20278;-61
2021/09/04 06:03:00;;;;;;;9.37;8.40;;;15.20;99.90;;;;;;5017167;28;20166;-62
2021/09/04 06:05:25;;;;;;;8.93;8.10;;;15.20;99.90;;;;;;5016826;28;20170;-62
2021/09/04 06:07:51;;;;;;;11.87;9.60;;;15.20;99.90;;;;;;5016492;28;20279;-61
2021/09/04 06:10:17;;;;;;;9.90;8.90;;;15.40;99.90;;;;;;5017348;28;20632;-61
2021/09/04 06:12:42;;;;;;;11.80;10.43;;;15.40;99.90;;;;;;5016725;28;20171;-61
2021/09/04 06:15:09;;;;;;;10.03;9.13;;;15.40;99.90;;;;;;5016676;28;20187;-62
2021/09/04 06:17:35;;;;;;;10.80;9.70;;;15.60;99.90;;;;;;5015313;28;20205;-61
2021/09/04 06:20:01;;;;;;;10.40;9.40;;;15.60;99.90;;;;;;5016961;28;20447;-61
2021/09/04 06:22:26;;;;;;;12.27;11.07;;;15.70;99.90;;;;;;5016923;28;20394;-61
2021/09/04 06:24:52;;;;;;;12.43;11.13;;;15.70;99.90;;;;;;5016821;28;20197;-59
2021/09/04 06:27:18;;;;;;;12.30;10.03;;;15.80;99.90;;;;;;5016398;28;20184;-59
2021/09/04 06:29:44;;;;;;;11.23;10.10;;;15.90;99.90;;;;;;5016747;28;20464;-60
2021/09/04 06:32:10;;;;;;;12.83;11.63;;;16.00;99.90;;;;;;5016154;28;20415;-60
2021/09/04 06:34:35;;;;;;;11.40;10.40;;;16.10;99.90;;;;;;5016678;28;20299;-60
2021/09/04 06:37:01;;;;;;;11.93;10.67;;;16.20;99.90;;;;;;5016258;28;20209;-60
2021/09/04 06:39:27;;;;;;;10.87;9.87;;;16.40;99.90;;;;;;5016494;28;20169;-60
2021/09/04 06:41:52;;;;;;;11.23;9.90;;;16.40;99.90;;;;;;5016313;28;20174;-61
2021/09/04 06:44:18;;;;;;;11.17;9.97;;;16.50;99.90;;;;;;5016795;28;20170;-61
2021/09/04 06:46:43;;;;;;;10.03;9.13;;;16.60;99.90;;;;;;5015825;28;20248;-62
2021/09/04 06:49:09;;;;;;;12.50;11.20;;;16.70;99.90;;;;;;5016430;28;20294;-61
2021/09/04 06:51:35;;;;;;;10.93;9.83;;;16.80;99.90;;;;;;5015856;28;20180;-60
2021/09/04 06:54:00;;;;;;;11.27;10.17;;;16.90;99.90;;;;;;5015989;28;20710;-61
2021/09/04 06:56:26;;;;;;;11.00;9.90;;;17.00;99.90;;;;;;5016002;28;20237;-61
2021/09/04 06:58:52;;;;;;;10.43;9.43;;;17.10;99.90;;;;;;5016126;28;20189;-61
2021/09/04 07:01:18;;;;;;;11.00;9.80;;;17.20;99.90;;;;;;5015830;28;20194;-61
2021/09/04 07:03:44;;;;;;;11.10;9.50;;;17.30;99.90;;;;;;5002602;28;20418;-61
2021/09/04 07:06:09;;;;;;;10.53;9.53;;;17.40;99.90;;;;;;4994767;28;20543;-61
2021/09/04 07:08:35;;;;;;;10.93;9.83;;;17.50;99.90;;;;;;4996031;28;20206;-61
2021/09/04 07:11:01;;;;;;;10.77;9.70;;;17.50;99.90;;;;;;4996603;28;20176;-60
2021/09/04 07:13:26;;;;;;;13.07;11.77;;;17.60;99.90;;;;;;4996271;28;20263;-60
2021/09/04 07:15:52;;;;;;;12.83;10.93;;;17.70;99.90;;;;;;5005023;28;20203;-60
2021/09/04 07:18:20;;;;;;;9.87;8.87;;;17.90;99.90;;;;;;5015896;28;20196;-61
2021/09/04 07:20:46;;;;;;;10.07;9.13;;;18.00;99.90;;;;;;5015889;28;20210;-61
2021/09/04 07:23:12;;;;;;;11.73;9.50;;;18.10;99.90;;;;;;5015555;28;20403;-61
2021/09/04 07:25:38;;;;;;;11.50;10.00;;;18.20;99.90;;;;;;5015497;28;20740;-61
2021/09/04 07:28:06;;;;;;;10.47;9.03;;;18.30;99.90;;;;;;5015574;28;20199;-61
2021/09/04 07:30:34;;;;;;;10.30;9.30;;;18.40;99.90;;;;;;5015747;28;20180;-61
2021/09/04 07:33:01;;;;;;;12.13;10.93;;;18.60;99.90;;;;;;5015103;28;20406;-61
2021/09/04 07:35:26;;;;;;;15.37;12.53;;;18.70;99.90;;;;;;5016000;28;20419;-61
2021/09/04 07:37:52;;;;;;;13.87;12.50;;;18.70;99.90;;;;;;5015067;28;20434;-61
2021/09/04 07:40:18;;;;;;;11.40;10.20;;;18.80;99.90;;;;;;5015175;28;20314;-61
2021/09/04 07:42:43;;;;;;;12.93;11.10;;;18.80;99.90;;;;;;5015247;28;20176;-61
2021/09/04 07:45:09;;;;;;;12.57;11.40;;;18.80;99.90;;;;;;5015357;28;20187;-61
2021/09/04 07:47:35;;;;;;;12.17;10.90;;;18.90;99.90;;;;;;5015120;28;20604;-61
2021/09/04 07:50:01;;;;;;;12.93;11.07;;;19.00;99.90;;;;;;5015404;28;20415;-61
2021/09/04 07:52:26;;;;;;;11.97;10.77;;;19.00;99.90;;;;;;5014264;28;20168;-61
2021/09/04 07:54:52;;;;;;;13.93;11.40;;;19.10;99.90;;;;;;5004131;28;20176;-62
2021/09/04 07:57:18;;;;;;;11.03;9.93;;;19.20;99.90;;;;;;5014973;28;20667;-61
2021/09/04 07:59:43;;;;;;;11.53;10.40;;;19.30;99.90;;;;;;5015138;28;20203;-61
2021/09/04 08:02:09;;;;;;;11.80;10.60;;;19.30;99.90;;;;;;5014543;28;20664;-61
2021/09/04 08:04:35;;;;;;;10.60;9.60;;;19.30;99.90;;;;;;5015138;28;20246;-60
2021/09/04 08:09:34;;;;;;;11.37;10.27;;;19.40;99.90;;;;;;5006761;22;1170293;-57
2021/09/04 08:12:00;;;;;;;10.87;9.80;;;19.50;99.90;;;;;;5015145;28;20175;-58
2021/09/04 08:14:25;;;;;;;11.23;10.23;;;19.50;99.90;;;;;;5014694;28;20172;-57
2021/09/04 08:16:51;;;;;;;12.07;10.87;;;19.60;99.90;;;;;;5014544;28;20190;-54
2021/09/04 08:19:16;;;;;;;12.10;10.90;;;19.60;99.90;;;;;;5022867;28;20202;-56
2021/09/04 08:21:42;;;;;;;10.77;9.77;;;19.70;99.90;;;;;;5015485;28;20200;-56
2021/09/04 08:24:08;;;;;;;14.10;9.93;;;19.70;99.90;;;;;;5014815;28;20176;-57
2021/09/04 08:26:33;;;;;;;13.33;10.07;;;19.70;99.90;;;;;;5014682;28;20241;-57
2021/09/04 08:28:59;;;;;;;11.70;10.60;;;19.50;99.90;;;;;;5014492;28;20192;-56
2021/09/04 08:31:24;;;;;;;10.40;9.17;;;19.60;99.90;;;;;;5014591;28;20558;-57
2021/09/04 08:33:50;;;;;;;10.50;9.13;;;19.90;99.90;;;;;;5014351;28;20633;-57
2021/09/04 08:36:15;;;;;;;10.93;9.83;;;20.00;99.90;;;;;;5014164;28;20168;-59
2021/09/04 08:38:41;;;;;;;10.93;9.97;;;20.10;99.90;;;;;;4996970;28;20195;-56
2021/09/04 08:41:07;;;;;;;10.37;9.43;;;20.20;99.90;;;;;;5014532;28;20742;-56
2021/09/04 08:43:33;;;;;;;10.53;9.43;;;20.30;99.90;;;;;;5014211;28;20172;-56
2021/09/04 08:46:00;;;;;;;9.63;8.63;;;20.30;99.90;;;;;;5014429;28;20195;-57
2021/09/04 08:48:26;;;;;;;9.83;8.93;;;20.50;99.90;;;;;;5013976;28;20431;-57
2021/09/04 08:50:53;;;;;;;11.40;10.30;;;20.60;99.90;;;;;;5014100;28;20415;-56
2021/09/04 08:53:22;;;;;;;9.00;7.93;;;20.70;99.90;;;;;;5013853;28;20501;-57
2021/09/04 08:55:48;;;;;;;9.63;8.67;;;20.90;99.90;;;;;;5013944;28;20410;-57
2021/09/04 08:58:14;;;;;;;10.70;8.47;;;21.10;99.90;;;;;;5014055;28;20427;-53
2021/09/04 09:00:41;;;;;;;9.90;8.90;;;21.20;99.90;;;;;;5013907;28;20953;-57
2021/09/04 09:03:24;;;;;;;8.93;8.13;;;21.20;99.90;;;;;;5013578;28;20182;-57
2021/09/04 09:05:51;;;;;;;11.13;9.23;;;21.30;99.90;;;;;;5013757;28;20442;-57
2021/09/04 09:08:22;;;;;;;9.87;8.87;;;21.30;99.90;;;;;;5013323;28;20483;-57
2021/09/04 09:10:48;;;;;;;10.33;9.33;;;21.20;99.90;;;;;;5013770;28;20410;-56
2021/09/04 09:13:18;;;;;;;9.27;8.37;;;21.30;99.90;;;;;;5013616;28;20887;-55
2021/09/04 09:15:44;;;;;;;9.97;8.30;;;21.40;99.90;;;;;;5013957;28;20402;-56
2021/09/04 09:18:13;;;;;;;9.00;7.93;;;21.50;99.90;;;;;;5013238;28;20438;-56
2021/09/04 09:21:00;;;;;;;8.13;7.27;;;21.60;99.90;;;;;;5012594;28;20453;-56
2021/09/04 09:23:27;;;;;;;10.80;8.80;;;21.90;99.90;;;;;;5013322;28;20557;-57
2021/09/04 09:25:52;;;;;;;8.07;7.13;;;21.90;99.90;;;;;;5013510;28;20403;-57
2021/09/04 09:28:20;;;;;;;8.27;7.43;;;22.00;99.90;;;;;;5013271;28;20442;-57
2021/09/04 09:30:47;;;;;;;8.70;7.90;;;22.10;99.90;;;;;;5013794;28;20259;-57
2021/09/04 09:33:18;;;;;;;7.50;6.63;;;22.20;99.90;;;;;;5013591;28;20407;-57
2021/09/04 09:35:46;;;;;;;7.47;6.53;;;22.30;99.90;;;;;;5013918;28;20403;-56
2021/09/04 09:38:35;;;;;;;7.67;6.97;;;22.40;99.90;;;;;;5013435;28;20452;-57
2021/09/04 09:41:03;;;;;;;8.20;7.43;;;22.70;99.90;;;;;;5000559;28;20461;-57
2021/09/04 09:43:35;;;;;;;7.13;6.37;;;22.60;99.90;;;;;;5013653;28;20414;-57
2021/09/04 09:46:03;;;;;;;5.70;5.10;;;22.40;99.90;;;;;;5013694;28;20530;-57
2021/09/04 09:48:32;;;;;;;7.10;5.43;;;22.50;99.90;;;;;;5013333;28;20431;-57
2021/09/04 09:51:03;;;;;;;6.37;5.77;;;22.60;99.90;;;;;;5013168;28;20407;-55
2021/09/04 09:53:29;;;;;;;6.93;6.23;;;22.70;99.90;;;;;;5013327;28;20403;-56
2021/09/04 09:55:58;;;;;;;5.83;5.23;;;22.90;99.90;;;;;;5013433;28;20407;-54
2021/09/04 09:58:25;;;;;;;7.53;5.53;;;22.90;99.90;;;;;;5013350;28;20507;-57
2021/09/04 10:00:54;;;;;;;5.50;5.00;;;23.00;99.90;;;;;;5013371;28;20450;-56
2021/09/04 10:03:21;;;;;;;5.90;5.07;;;23.20;99.90;;;;;;5013181;28;20422;-57
2021/09/04 10:05:47;;;;;;;5.27;4.77;;;23.40;99.90;;;;;;5013025;28;20418;-51
2021/09/04 10:08:17;;;;;;;6.37;5.77;;;23.20;99.90;;;;;;5012957;28;20998;-49
2021/09/04 10:10:43;;;;;;;8.20;5.03;;;23.20;99.90;;;;;;5013165;28;20414;-52
2021/09/04 10:13:11;;;;;;;5.20;4.37;;;23.30;99.90;;;;;;5013275;28;20903;-52
2021/09/04 10:15:38;;;;;;;5.50;5.00;;;23.50;99.90;;;;;;5013016;28;20407;-52
2021/09/04 10:18:06;;;;;;;5.20;4.70;;;23.80;99.90;;;;;;5012494;28;20435;-50
2021/09/04 10:20:33;;;;;;;5.07;4.60;;;23.80;99.90;;;;;;5013253;28;20760;-51
2021/09/04 10:23:19;;;;;;;5.60;5.00;;;23.70;99.90;;;;;;5013009;28;20403;-52
2021/09/04 10:25:45;;;;;;;5.90;5.40;;;23.90;99.90;;;;;;5013265;28;20386;-57
2021/09/04 10:28:10;;;;;;;5.23;4.77;;;24.00;98.90;;;;;;5013025;28;20855;-57
2021/09/04 10:30:38;;;;;;;6.67;6.07;;;23.90;99.30;;;;;;5013040;28;20214;-57
2021/09/04 10:33:04;;;;;;;5.83;4.80;;;24.00;99.30;;;;;;5014960;28;20195;-56
2021/09/04 10:35:46;;;;;;;5.70;5.13;;;23.90;98.70;;;;;;5016848;28;20407;-50
2021/09/04 10:38:18;;;;;;;5.33;4.83;;;24.00;98.80;;;;;;5016278;28;20192;-51
2021/09/04 10:40:45;;;;;;;5.23;4.73;;;24.20;97.70;;;;;;5016393;28;20442;-55
2021/09/04 10:43:11;;;;;;;4.97;4.57;;;24.30;98.00;;;;;;5016592;28;20399;-53
2021/09/04 10:45:38;;;;;;;4.70;4.30;;;24.90;98.50;;;;;;5016252;28;20409;-56
2021/09/04 10:48:19;;;;;;;4.00;3.70;;;25.60;94.60;;;;;;5016057;28;20788;-57
2021/09/04 10:51:08;;;;;;;4.43;4.03;;;26.80;91.20;;;;;;5016566;28;20394;-58
2021/09/04 10:53:48;;;;;;;5.00;4.50;;;28.90;89.60;;;;;;5016110;28;20887;-56
2021/09/04 10:56:18;;;;;;;5.60;4.97;;;30.50;84.40;;;;;;5016146;28;20411;-57
2021/09/04 10:58:43;;;;;;;5.80;5.30;;;31.00;80.40;;;;;;5015990;28;20423;-57
2021/09/04 11:01:14;;;;;;;7.07;5.93;;;30.70;81.00;;;;;;5016165;28;20453;-55
2021/09/04 11:03:41;;;;;;;6.40;5.80;;;30.10;84.10;;;;;;5015926;28;20525;-57
2021/09/04 11:06:08;;;;;;;6.20;5.60;;;29.80;83.30;;;;;;5015892;28;20903;-57
2021/09/04 11:08:43;;;;;;;6.90;6.30;;;29.80;83.00;;;;;;5015479;28;20459;-57
2021/09/04 11:11:19;;;;;;;6.50;5.60;;;29.90;84.50;;;;;;5014368;28;20430;-57
2021/09/04 11:13:46;;;;;;;6.73;5.33;;;29.60;84.00;;;;;;5020702;28;20424;-57
2021/09/04 11:16:40;;;;;;;5.87;5.10;;;30.10;82.00;;;;;;5035507;28;20471;-57
2021/09/04 11:19:07;;;;;;;5.60;5.00;;;31.30;76.90;;;;;;5019352;28;20429;-56
2021/09/04 11:21:43;;;;;;;6.67;5.67;;;32.30;77.10;;;;;;5015436;28;20439;-57
2021/09/04 11:24:08;;;;;;;6.17;5.57;;;33.90;74.50;;;;;;5015306;28;20391;-57
2021/09/04 11:26:46;;;;;;;5.67;5.17;;;34.20;70.30;;;;;;5015650;28;20414;-56
2021/09/04 11:29:12;;;;;;;5.90;5.40;;;35.00;69.00;;;;;;5015642;28;20214;-57
2021/09/04 11:31:56;;;;;;;6.50;5.90;;;34.00;67.80;;;;;;5015250;28;20910;-57
2021/09/04 11:34:49;;;;;;;6.27;5.70;;;32.10;71.30;;;;;;5015013;28;20160;-55
2021/09/04 11:37:19;;;;;;;6.93;6.30;;;32.90;71.00;;;;;;5015384;28;20502;-56
2021/09/04 11:39:46;;;;;;;6.50;5.20;;;33.60;68.00;;;;;;5015510;28;20400;-55
2021/09/04 11:42:26;;;;;;;5.97;5.37;;;33.50;68.60;;;;;;5015293;28;20400;-54
2021/09/04 11:44:58;;;;;;;5.90;5.40;;;32.40;69.70;;;;;;5014570;28;20394;-56
2021/09/04 11:47:25;;;;;;;6.97;5.40;;;32.20;69.40;;;;;;5015294;28;20384;-58
2021/09/04 11:49:59;;;;;;;5.90;5.40;;;33.10;68.40;;;;;;5014880;28;20410;-57
2021/09/04 11:52:31;;;;;;;5.53;5.03;;;32.40;67.70;;;;;;5015111;28;20911;-57
2021/09/04 11:55:27;;;;;;;5.97;5.47;;;33.00;67.00;;;;;;5015357;28;20387;-57
2021/09/04 11:57:56;;;;;;;6.10;5.60;;;33.70;64.50;;;;;;5015173;28;20769;-58
2021/09/04 12:00:27;;;;;;;7.63;5.20;;;34.70;63.60;;;;;;5015151;28;20451;-57
2021/09/04 12:03:01;;;;;;;5.87;5.37;;;34.70;62.80;;;;;;5014636;28;20454;-58
2021/09/04 12:05:32;;;;;;;6.00;5.50;;;36.00;61.70;;;;;;5014908;28;20405;-58
2021/09/04 12:08:05;;;;;;;5.30;4.80;;;34.50;62.00;;;;;;5014306;28;20447;-58
2021/09/04 12:10:33;;;;;;;5.80;4.60;;;34.80;61.30;;;;;;5015015;28;20498;-58
2021/09/04 12:13:02;;;;;;;5.37;4.87;;;35.50;61.40;;;;;;5014996;28;20414;-58
2021/09/04 12:15:30;;;;;;;5.20;4.70;;;37.10;58.00;;;;;;5014921;28;20410;-58
2021/09/04 12:17:58;;;;;;;5.03;4.60;;;37.40;56.40;;;;;;5014130;28;20431;-58
2021/09/04 12:20:41;;;;;;;4.80;4.10;;;37.00;56.90;;;;;;5014808;28;20824;-58
2021/09/04 12:23:21;;;;;;;4.17;3.77;;;36.80;53.10;;;;;;5014303;28;20403;-55
2021/09/04 12:26:11;;;;;;;4.20;3.80;;;35.10;53.50;;;;;;5014557;28;20414;-57
2021/09/04 12:28:36;;;;;;;4.27;3.87;;;34.70;52.70;;;;;;5013235;28;20435;-57
2021/09/04 12:31:10;;;;;;;4.30;4.00;;;33.40;55.00;;;;;;5014517;28;20410;-58
2021/09/04 12:33:50;;;;;;;3.90;3.50;;;32.10;57.60;;;;;;5014345;28;20202;-58
2021/09/04 12:36:17;;;;;;;3.67;3.37;;;34.10;55.70;;;;;;5014513;28;20472;-57
2021/09/04 12:38:44;;;;;;;4.33;3.83;;;34.60;54.50;;;;;;5014124;28;20454;-57
2021/09/04 12:41:17;;;;;;;4.00;3.70;;;35.30;51.60;;;;;;5014676;28;20943;-56
2021/09/04 12:43:51;;;;;;;4.30;3.87;;;35.80;50.50;;;;;;5014372;28;20403;-56
2021/09/04 12:46:37;;;;;;;3.93;3.63;;;34.50;51.50;;;;;;5014373;28;20395;-58